Time;durP1;ratioP1;P1;durP2;ratioP2;P2;SDS_P1;SDS_P2;PMS_P1;PMS_P2;Temp;Humidity;BMP_temperature;BMP_pressure;BME280_temperature;BME280_humidity;BME280_pressure;Samples;Min_cycle;Max_cycle;Signal;HPM_P1;HPM_P2
2022/01/05 00:00:45;;;;;;;6.40;3.60;;;;;;98323.84;;;;106962;1279;64911;-30
2022/01/05 00:03:12;;;;;;;6.40;3.60;;;;;;98317.63;;;;106970;1279;64884;-30
2022/01/05 00:05:40;;;;;;;7.00;3.90;;;;;;98314.95;;;;106943;1279;64865;-30
2022/01/05 00:08:07;;;;;;;7.70;3.70;;;;;;98319.58;;;;106917;1280;64894;-33
2022/01/05 00:10:35;;;;;;;6.20;3.40;;;;;;98320.77;;;;106719;1280;65033;-30
2022/01/05 00:13:03;;;;;;;6.40;4.00;;;;;;98324.44;;;;106932;1280;66416;-30
2022/01/05 00:15:30;;;;;;;6.80;3.50;;;;;;98331.80;;;;106927;1280;64773;-30
2022/01/05 00:17:58;;;;;;;6.80;3.70;;;;;;98334.23;;;;106934;1279;64773;-32
2022/01/05 00:20:25;;;;;;;7.50;4.20;;;;;;98342.69;;;;106943;1279;64777;-32
2022/01/05 00:22:53;;;;;;;7.80;3.20;;;;;;98345.79;;;;106946;1280;63582;-30
2022/01/05 00:25:20;;;;;;;5.80;2.90;;;;;;98347.96;;;;106999;1279;66177;-29
2022/01/05 00:27:47;;;;;;;6.00;3.30;;;;;;98343.65;;;;106907;1279;64892;-31
2022/01/05 00:30:15;;;;;;;5.80;3.40;;;;;;98351.52;;;;106831;1280;65804;-32
2022/01/05 00:32:43;;;;;;;5.90;3.30;;;;;;98359.55;;;;106805;1280;64885;-31
2022/01/05 00:35:10;;;;;;;5.40;3.10;;;;;;98360.85;;;;106944;1280;64740;-32
2022/01/05 00:37:37;;;;;;;6.10;3.00;;;;;;98356.39;;;;106956;1279;66255;-36
2022/01/05 00:40:06;;;;;;;6.70;3.60;;;;;;98357.82;;;;106956;1280;64782;-30
2022/01/05 00:42:34;;;;;;;7.00;3.60;;;;;;98360.60;;;;106978;1279;64913;-32
2022/01/05 00:45:01;;;;;;;7.00;3.70;;;;;;98365.88;;;;106948;1280;64883;-31
2022/01/05 00:47:28;;;;;;;6.30;3.60;;;;;;98366.48;;;;106941;1279;64805;-30
2022/01/05 00:49:55;;;;;;;5.90;3.40;;;;;;98374.35;;;;106926;1279;66549;-29
2022/01/05 00:52:23;;;;;;;7.00;3.30;;;;;;98370.77;;;;106927;1279;65441;-31
2022/01/05 00:54:51;;;;;;;5.80;3.40;;;;;;98380.29;;;;106948;1279;64753;-30
2022/01/05 00:57:18;;;;;;;6.30;4.00;;;;;;98383.55;;;;106918;1279;64897;-29
2022/01/05 00:59:45;;;;;;;6.30;3.40;;;;;;98385.66;;;;106946;1279;64800;-30
2022/01/05 01:02:12;;;;;;;5.80;3.40;;;;;;98386.06;;;;106594;1279;298216;-29
2022/01/05 01:04:40;;;;;;;6.90;3.10;;;;;;98390.28;;;;106948;1279;64878;-29
2022/01/05 01:07:07;;;;;;;5.30;3.20;;;;;;98393.77;;;;106937;1279;64930;-30
2022/01/05 01:09:35;;;;;;;5.90;3.00;;;;;;98392.86;;;;106908;1280;64844;-28
2022/01/05 01:12:03;;;;;;;5.90;3.50;;;;;;98397.38;;;;106964;1280;64796;-31
2022/01/05 01:14:31;;;;;;;6.40;3.20;;;;;;98397.79;;;;106964;1279;65857;-30
2022/01/05 01:16:58;;;;;;;7.70;3.30;;;;;;98393.43;;;;106892;1281;65075;-31
2022/01/05 01:19:25;;;;;;;5.80;3.20;;;;;;98395.03;;;;106974;1279;64719;-32
2022/01/05 01:21:52;;;;;;;6.80;3.20;;;;;;98395.98;;;;106808;1281;64877;-31
2022/01/05 01:24:19;;;;;;;5.90;3.30;;;;;;98400.45;;;;106985;1279;64848;-31
2022/01/05 01:26:46;;;;;;;6.00;3.20;;;;;;98403.49;;;;106923;1279;65276;-30
2022/01/05 01:29:14;;;;;;;7.50;3.70;;;;;;98406.98;;;;106936;1279;64883;-31
2022/01/05 01:31:41;;;;;;;7.00;3.30;;;;;;98406.54;;;;106925;1279;64763;-29
2022/01/05 01:34:08;;;;;;;5.70;3.50;;;;;;98415.66;;;;106934;1279;64917;-31
2022/01/05 01:36:36;;;;;;;5.10;3.30;;;;;;98427.11;;;;106959;1279;64777;-32
2022/01/05 01:39:04;;;;;;;6.90;3.30;;;;;;98419.19;;;;106908;1279;66502;-33
2022/01/05 01:41:32;;;;;;;5.90;3.20;;;;;;98416.06;;;;106940;1279;64777;-31
2022/01/05 01:43:59;;;;;;;6.40;3.50;;;;;;98423.55;;;;106918;1279;64840;-32
2022/01/05 01:46:26;;;;;;;6.40;3.90;;;;;;98426.42;;;;106894;1279;64750;-32
2022/01/05 01:48:54;;;;;;;6.00;3.20;;;;;;98429.95;;;;106826;1281;64985;-31
2022/01/05 01:51:21;;;;;;;6.30;3.30;;;;;;98436.39;;;;106952;1279;67258;-31
2022/01/05 01:53:49;;;;;;;6.50;3.60;;;;;;98434.83;;;;106905;1279;64754;-32
2022/01/05 01:56:16;;;;;;;4.80;2.90;;;;;;98434.75;;;;106952;1279;64766;-30
2022/01/05 01:58:45;;;;;;;6.90;3.70;;;;;;98429.43;;;;106945;1279;64913;-31
2022/01/05 02:01:14;;;;;;;6.20;3.40;;;;;;98429.11;;;;106950;1279;64792;-32
2022/01/05 02:03:41;;;;;;;6.40;3.40;;;;;;98430.02;;;;106940;1279;64783;-29
2022/01/05 02:06:09;;;;;;;6.90;3.60;;;;;;98434.52;;;;106909;1279;64747;-30
2022/01/05 02:08:36;;;;;;;6.40;3.30;;;;;;98434.54;;;;106948;1279;64862;-30
2022/01/05 02:11:06;;;;;;;6.60;3.30;;;;;;98432.50;;;;106814;1281;64891;-30
2022/01/05 02:13:34;;;;;;;7.00;3.40;;;;;;98436.58;;;;106939;1279;64930;-31
2022/01/05 02:16:02;;;;;;;6.40;3.50;;;;;;98444.39;;;;106962;1279;66559;-30
2022/01/05 02:21:05;;;;;;;5.60;3.30;;;;;;98447.30;;;;106945;1279;64961;-30
2022/01/05 02:23:35;;;;;;;5.20;3.10;;;;;;98450.22;;;;106974;1279;64792;-29
2022/01/05 02:26:05;;;;;;;5.80;3.10;;;;;;98446.10;;;;106923;1280;64592;-27
2022/01/05 02:28:34;;;;;;;6.20;3.30;;;;;;98440.98;;;;106909;1279;65731;-29
2022/01/05 02:31:03;;;;;;;5.10;3.10;;;;;;98440.92;;;;106934;1279;64893;-30
2022/01/05 02:33:32;;;;;;;6.20;3.20;;;;;;98440.52;;;;106967;1279;64869;-31
2022/01/05 02:36:00;;;;;;;6.40;3.10;;;;;;98445.65;;;;106940;1279;64885;-32
2022/01/05 02:38:28;;;;;;;5.90;3.20;;;;;;98452.80;;;;106985;1279;64985;-37
2022/01/05 02:40:55;;;;;;;5.90;3.20;;;;;;98452.14;;;;106943;1279;65003;-31
2022/01/05 02:43:23;;;;;;;6.90;3.70;;;;;;98453.60;;;;106937;1279;64780;-29
2022/01/05 02:45:50;;;;;;;6.50;3.10;;;;;;98453.23;;;;106847;1280;64787;-30
2022/01/05 02:48:17;;;;;;;6.30;3.70;;;;;;98454.38;;;;106660;1281;64868;-31
2022/01/05 02:50:44;;;;;;;5.30;3.30;;;;;;98456.79;;;;106969;1278;64795;-32
2022/01/05 02:53:12;;;;;;;6.00;3.40;;;;;;98459.27;;;;106948;1279;65819;-29
2022/01/05 02:55:40;;;;;;;5.10;3.10;;;;;;98459.64;;;;106930;1279;64899;-29
2022/01/05 02:58:07;;;;;;;6.20;3.80;;;;;;98464.99;;;;106972;1279;64769;-30
2022/01/05 03:00:35;;;;;;;5.60;3.50;;;;;;98470.14;;;;106926;1279;64980;-29
2022/01/05 03:03:02;;;;;;;6.40;3.50;;;;;;98474.08;;;;106970;1279;64786;-31
2022/01/05 03:05:29;;;;;;;5.80;3.40;;;;;;98473.77;;;;106961;1279;65900;-32
2022/01/05 03:07:56;;;;;;;6.50;3.40;;;;;;98481.94;;;;106848;1280;64840;-32
2022/01/05 03:10:23;;;;;;;5.70;3.40;;;;;;98485.77;;;;106953;1279;64770;-31
2022/01/05 03:12:51;;;;;;;5.90;3.30;;;;;;98490.92;;;;106916;1279;64832;-30
2022/01/05 03:15:18;;;;;;;5.20;3.20;;;;;;98496.40;;;;106966;1279;64865;-29
2022/01/05 03:17:45;;;;;;;6.60;4.40;;;;;;98494.18;;;;106947;1279;65261;-32
2022/01/05 03:20:14;;;;;;;6.50;3.60;;;;;;98491.31;;;;106951;1279;64900;-32
2022/01/05 03:22:41;;;;;;;6.00;3.60;;;;;;98485.14;;;;106909;1280;65017;-29
2022/01/05 03:25:16;;;;;;;6.30;3.60;;;;;;98480.98;;;;106932;1279;64860;-29
2022/01/05 03:27:46;;;;;;;6.30;3.50;;;;;;98484.60;;;;106976;1279;64789;-31
2022/01/05 03:30:17;;;;;;;7.20;3.40;;;;;;98478.04;;;;106949;1278;67340;-31
2022/01/05 03:33:08;;;;;;;5.80;3.60;;;;;;98478.71;;;;106922;1280;65536;-30
2022/01/05 03:35:37;;;;;;;5.30;3.20;;;;;;98476.56;;;;106936;1279;64892;-32
2022/01/05 03:38:05;;;;;;;5.90;3.50;;;;;;98472.95;;;;106911;1279;64878;-30
2022/01/05 03:40:34;;;;;;;6.00;3.60;;;;;;98475.14;;;;107009;1279;65006;-29
2022/01/05 03:43:03;;;;;;;6.10;3.80;;;;;;98471.70;;;;106963;1279;65223;-31
2022/01/05 03:45:31;;;;;;;5.90;3.40;;;;;;98466.45;;;;106984;1279;64997;-32
2022/01/05 03:47:58;;;;;;;6.20;3.50;;;;;;98464.99;;;;106978;1279;64888;-31
2022/01/05 03:50:25;;;;;;;7.20;3.60;;;;;;98471.61;;;;106945;1279;64930;-31
2022/01/05 03:52:52;;;;;;;6.10;3.80;;;;;;98469.59;;;;106916;1280;65015;-30
2022/01/05 03:55:19;;;;;;;6.10;3.60;;;;;;98466.80;;;;106957;1279;66000;-29
2022/01/05 03:57:47;;;;;;;5.90;3.50;;;;;;98470.33;;;;106932;1279;64808;-31
2022/01/05 04:00:15;;;;;;;5.40;3.80;;;;;;98477.42;;;;106921;1279;64712;-31
2022/01/05 04:02:43;;;;;;;5.70;3.60;;;;;;98472.91;;;;106914;1279;64889;-31
2022/01/05 04:05:11;;;;;;;5.60;3.40;;;;;;98472.73;;;;106972;1279;64773;-30
2022/01/05 04:07:38;;;;;;;6.30;3.70;;;;;;98464.42;;;;106920;1279;64910;-31
2022/01/05 04:10:07;;;;;;;6.10;3.60;;;;;;98464.83;;;;106954;1279;64737;-32
2022/01/05 04:12:36;;;;;;;6.00;3.70;;;;;;98460.81;;;;106983;1279;66033;-31
2022/01/05 04:15:04;;;;;;;6.00;3.70;;;;;;98462.44;;;;106961;1279;64907;-30
2022/01/05 04:17:32;;;;;;;7.20;4.20;;;;;;98461.01;;;;106845;1280;63453;-29
2022/01/05 04:19:59;;;;;;;5.30;3.60;;;;;;98459.65;;;;106877;1280;66381;-29
2022/01/05 04:22:27;;;;;;;6.50;3.60;;;;;;98461.39;;;;106604;1279;64651;-32
2022/01/05 04:24:55;;;;;;;6.10;3.80;;;;;;98462.94;;;;106958;1279;64879;-31
2022/01/05 04:27:22;;;;;;;6.10;3.80;;;;;;98461.80;;;;106941;1279;64647;-29
2022/01/05 04:29:49;;;;;;;6.70;4.10;;;;;;98463.48;;;;106970;1280;64854;-29
2022/01/05 04:32:17;;;;;;;5.80;3.40;;;;;;98465.44;;;;106934;1279;66503;-29
2022/01/05 04:34:44;;;;;;;6.20;3.80;;;;;;98471.00;;;;106943;1279;64862;-30
2022/01/05 04:37:11;;;;;;;6.20;3.80;;;;;;98472.68;;;;106887;1280;64988;-31
2022/01/05 04:39:38;;;;;;;5.50;3.70;;;;;;98481.14;;;;106903;1281;64788;-30
2022/01/05 04:42:06;;;;;;;5.70;3.80;;;;;;98483.41;;;;106581;1281;64966;-31
2022/01/05 04:44:34;;;;;;;6.20;4.10;;;;;;98484.17;;;;106960;1279;66248;-31
2022/01/05 04:47:02;;;;;;;5.40;3.90;;;;;;98486.13;;;;106925;1279;64901;-30
2022/01/05 04:49:29;;;;;;;6.40;3.90;;;;;;98486.11;;;;106875;1279;64734;-29
2022/01/05 04:51:56;;;;;;;6.30;4.20;;;;;;98493.36;;;;106933;1279;65004;-30
2022/01/05 04:54:24;;;;;;;5.40;3.40;;;;;;98495.55;;;;106946;1279;64853;-33
2022/01/05 04:56:51;;;;;;;6.10;4.20;;;;;;98496.41;;;;106953;1279;66115;-31
2022/01/05 04:59:19;;;;;;;6.50;3.90;;;;;;98503.86;;;;106899;1280;64760;-30
2022/01/05 05:01:46;;;;;;;5.60;3.60;;;;;;98503.41;;;;106935;1279;64861;-29
2022/01/05 05:04:13;;;;;;;6.20;4.50;;;;;;98499.31;;;;106828;1279;64916;-30
2022/01/05 05:06:41;;;;;;;5.60;3.60;;;;;;98496.35;;;;106908;1279;64903;-30
2022/01/05 05:09:08;;;;;;;5.60;3.30;;;;;;98499.25;;;;106960;1279;65916;-28
2022/01/05 05:11:35;;;;;;;6.10;3.80;;;;;;98493.65;;;;106924;1279;64895;-30
2022/01/05 05:14:03;;;;;;;5.40;3.50;;;;;;98483.10;;;;106954;1279;64761;-31
2022/01/05 05:16:30;;;;;;;5.20;3.50;;;;;;98478.45;;;;106946;1279;64769;-31
2022/01/05 05:18:57;;;;;;;6.00;4.00;;;;;;98477.77;;;;106958;1279;64927;-31
2022/01/05 05:21:24;;;;;;;6.70;4.10;;;;;;98480.19;;;;106949;1279;66185;-29
2022/01/05 05:23:51;;;;;;;6.50;3.80;;;;;;98494.13;;;;106920;1279;64864;-31
2022/01/05 05:26:19;;;;;;;5.90;4.20;;;;;;98512.59;;;;106950;1279;64781;-30
2022/01/05 05:28:46;;;;;;;5.90;3.90;;;;;;98528.82;;;;106912;1279;64749;-28
2022/01/05 05:31:14;;;;;;;5.40;3.30;;;;;;98531.10;;;;106943;1279;64784;-29
2022/01/05 05:33:42;;;;;;;5.50;4.00;;;;;;98528.08;;;;106961;1279;64963;-29
2022/01/05 05:36:09;;;;;;;6.10;4.00;;;;;;98525.05;;;;106903;1281;64797;-29
2022/01/05 05:38:36;;;;;;;5.40;3.30;;;;;;98535.39;;;;106943;1279;64816;-29
2022/01/05 05:41:03;;;;;;;6.00;3.90;;;;;;98536.77;;;;106953;1279;64813;-29
2022/01/05 05:43:31;;;;;;;6.80;4.20;;;;;;98540.61;;;;106862;1280;64863;-29
2022/01/05 05:45:58;;;;;;;5.70;3.70;;;;;;98548.23;;;;106967;1279;64918;-29
2022/01/05 05:48:25;;;;;;;5.30;3.60;;;;;;98552.38;;;;106965;1279;64288;-31
2022/01/05 05:50:53;;;;;;;5.90;3.60;;;;;;98563.67;;;;106938;1279;64772;-30
2022/01/05 05:53:20;;;;;;;5.80;4.20;;;;;;98562.92;;;;106962;1279;64912;-29
2022/01/05 05:55:47;;;;;;;5.50;3.40;;;;;;98574.47;;;;106975;1279;64830;-29
2022/01/05 05:58:15;;;;;;;5.90;3.60;;;;;;98573.88;;;;106950;1279;65285;-31
2022/01/05 06:00:42;;;;;;;6.70;3.70;;;;;;98576.48;;;;106928;1279;64899;-31
2022/01/05 06:03:09;;;;;;;5.10;3.40;;;;;;98577.68;;;;106914;1279;64787;-31
2022/01/05 06:05:37;;;;;;;5.50;3.30;;;;;;98575.98;;;;106851;1281;64927;-31
2022/01/05 06:08:04;;;;;;;5.20;3.20;;;;;;98576.81;;;;106957;1279;63600;-31
2022/01/05 06:10:31;;;;;;;5.80;3.70;;;;;;98577.68;;;;106976;1279;64911;-30
2022/01/05 06:12:58;;;;;;;5.50;4.00;;;;;;98579.38;;;;106965;1279;64884;-31
2022/01/05 06:15:25;;;;;;;5.80;3.70;;;;;;98583.60;;;;106691;1282;65573;-31
2022/01/05 06:17:52;;;;;;;6.00;3.80;;;;;;98590.17;;;;106940;1279;64773;-30
2022/01/05 06:20:19;;;;;;;5.80;3.80;;;;;;98590.33;;;;106953;1279;64965;-30
2022/01/05 06:22:47;;;;;;;5.60;3.60;;;;;;98593.30;;;;106949;1279;66662;-32
2022/01/05 06:25:14;;;;;;;5.60;3.60;;;;;;98594.11;;;;106890;1280;64729;-31
2022/01/05 06:27:41;;;;;;;5.00;3.50;;;;;;98596.92;;;;106948;1279;64773;-29
2022/01/05 06:30:10;;;;;;;5.20;3.40;;;;;;98602.15;;;;106953;1280;65009;-29
2022/01/05 06:32:45;;;;;;;5.40;3.60;;;;;;98603.39;;;;106980;1279;64921;-30
2022/01/05 06:35:14;;;;;;;5.50;3.80;;;;;;98612.98;;;;106987;1279;66096;-31
2022/01/05 06:37:42;;;;;;;5.40;3.60;;;;;;98615.05;;;;106975;1279;64993;-30
2022/01/05 06:40:10;;;;;;;5.60;3.70;;;;;;98617.16;;;;106871;1279;64963;-31
2022/01/05 06:42:37;;;;;;;5.40;3.40;;;;;;98617.84;;;;106649;1280;64865;-29
2022/01/05 06:45:06;;;;;;;6.20;3.60;;;;;;98612.27;;;;106969;1279;64873;-28
2022/01/05 06:47:33;;;;;;;5.50;3.20;;;;;;98615.42;;;;106971;1280;66035;-31
2022/01/05 06:50:03;;;;;;;5.20;3.50;;;;;;98616.48;;;;106966;1279;63366;-31
2022/01/05 06:52:30;;;;;;;5.20;3.40;;;;;;98613.63;;;;106917;1279;64815;-31
2022/01/05 06:54:57;;;;;;;5.50;3.40;;;;;;98618.04;;;;106946;1279;64891;-30
2022/01/05 06:57:25;;;;;;;5.40;3.50;;;;;;98623.58;;;;106988;1279;64983;-29
2022/01/05 06:59:52;;;;;;;5.70;3.90;;;;;;98626.43;;;;106945;1279;66401;-32
2022/01/05 07:02:19;;;;;;;5.30;3.30;;;;;;98624.91;;;;106860;1279;64967;-31
2022/01/05 07:04:46;;;;;;;4.40;3.10;;;;;;98623.48;;;;106915;1280;64959;-29
2022/01/05 07:07:14;;;;;;;5.40;3.20;;;;;;98626.45;;;;106869;1279;64793;-30
2022/01/05 07:09:41;;;;;;;5.20;3.60;;;;;;98626.98;;;;106984;1279;64876;-31
2022/01/05 07:12:10;;;;;;;5.60;3.40;;;;;;98621.86;;;;106967;1279;65057;-30
2022/01/05 07:14:37;;;;;;;4.60;3.00;;;;;;98612.81;;;;106947;1279;64882;-28
2022/01/05 07:17:04;;;;;;;4.90;3.00;;;;;;98606.83;;;;106987;1279;64748;-29
2022/01/05 07:19:33;;;;;;;4.90;3.10;;;;;;98613.58;;;;106925;1279;64742;-30
2022/01/05 07:22:00;;;;;;;4.80;3.20;;;;;;98613.82;;;;106927;1281;64774;-29
2022/01/05 07:24:28;;;;;;;5.60;3.20;;;;;;98620.63;;;;106989;1279;65041;-40
2022/01/05 07:26:55;;;;;;;5.20;3.40;;;;;;98625.07;;;;106946;1279;64860;-32
2022/01/05 07:29:22;;;;;;;5.00;3.30;;;;;;98621.48;;;;106957;1279;64791;-31
2022/01/05 07:31:49;;;;;;;5.20;3.10;;;;;;98615.52;;;;106919;1279;64875;-29
2022/01/05 07:34:16;;;;;;;4.80;3.20;;;;;;98612.80;;;;106885;1280;65492;-45
2022/01/05 07:36:44;;;;;;;5.20;2.90;;;;;;98614.05;;;;106990;1279;64911;-31
2022/01/05 07:39:11;;;;;;;4.90;3.10;;;;;;98617.72;;;;106973;1279;64862;-31
2022/01/05 07:41:39;;;;;;;5.00;3.00;;;;;;98624.19;;;;106968;1279;65714;-31
2022/01/05 07:44:07;;;;;;;5.10;3.30;;;;;;98623.15;;;;106904;1281;64750;-31
2022/01/05 07:46:35;;;;;;;5.20;3.10;;;;;;98623.73;;;;106967;1279;64850;-41
2022/01/05 07:49:05;;;;;;;5.20;3.00;;;;;;98617.83;;;;106967;1279;64812;-29
2022/01/05 07:51:33;;;;;;;5.50;3.40;;;;;;98613.04;;;;106969;1279;64916;-31
2022/01/05 07:54:01;;;;;;;6.10;3.30;;;;;;98618.88;;;;106886;1279;64653;-33
2022/01/05 07:56:29;;;;;;;5.60;3.10;;;;;;98627.52;;;;106951;1279;64899;-30
2022/01/05 07:58:58;;;;;;;5.80;3.50;;;;;;98625.67;;;;107031;1279;64902;-30
2022/01/05 08:01:25;;;;;;;5.90;3.20;;;;;;98627.31;;;;106984;1279;66088;-30
2022/01/05 08:03:54;;;;;;;6.70;3.50;;;;;;98614.98;;;;106878;1279;64774;-30
2022/01/05 08:06:22;;;;;;;5.90;3.50;;;;;;98618.05;;;;106944;1279;65595;-36
2022/01/05 08:08:50;;;;;;;6.30;3.30;;;;;;98618.60;;;;106942;1279;64895;-31
2022/01/05 08:11:17;;;;;;;6.90;3.80;;;;;;98610.30;;;;107011;1279;65446;-28
2022/01/05 08:13:45;;;;;;;5.40;3.10;;;;;;98605.93;;;;106982;1279;66172;-29
2022/01/05 08:16:13;;;;;;;7.20;3.40;;;;;;98602.38;;;;106821;1280;65293;-27
2022/01/05 08:18:41;;;;;;;6.00;3.40;;;;;;98603.69;;;;106919;1280;64878;-28
2022/01/05 08:21:08;;;;;;;6.50;3.40;;;;;;98602.21;;;;106873;1280;64995;-27
2022/01/05 08:23:36;;;;;;;7.10;3.80;;;;;;98605.05;;;;106981;1279;64880;-27
2022/01/05 08:26:05;;;;;;;6.00;3.60;;;;;;98605.30;;;;106978;1279;65659;-32
2022/01/05 08:28:34;;;;;;;6.90;3.60;;;;;;98600.27;;;;106952;1279;64831;-31
2022/01/05 08:31:03;;;;;;;5.90;3.40;;;;;;98602.99;;;;106956;1279;64770;-36
2022/01/05 08:33:31;;;;;;;6.10;3.50;;;;;;98602.75;;;;106969;1279;64793;-29
2022/01/05 08:35:58;;;;;;;7.30;3.90;;;;;;98607.30;;;;106877;1279;64785;-28
2022/01/05 08:38:25;;;;;;;6.30;3.70;;;;;;98609.67;;;;106935;1279;65936;-28
2022/01/05 08:40:54;;;;;;;6.10;3.80;;;;;;98607.21;;;;106885;1279;64899;-29
2022/01/05 08:43:21;;;;;;;6.70;3.90;;;;;;98605.05;;;;106930;1279;64760;-33
2022/01/05 08:45:48;;;;;;;5.60;3.90;;;;;;98605.75;;;;106932;1279;64857;-34
2022/01/05 08:48:16;;;;;;;5.70;3.00;;;;;;98609.84;;;;106851;1279;64788;-29
2022/01/05 08:50:45;;;;;;;6.30;3.60;;;;;;98611.98;;;;106959;1279;65923;-30
2022/01/05 08:53:12;;;;;;;6.20;3.70;;;;;;98617.86;;;;106964;1279;64777;-29
2022/01/05 08:55:44;;;;;;;6.10;3.60;;;;;;98616.21;;;;106942;1279;64873;-28
2022/01/05 08:58:12;;;;;;;5.30;3.40;;;;;;98614.70;;;;106852;1280;64942;-37
2022/01/05 09:00:39;;;;;;;6.40;3.60;;;;;;98610.73;;;;106896;1279;64923;-34
2022/01/05 09:03:09;;;;;;;5.60;3.70;;;;;;98609.48;;;;105965;1280;1276537;-30
2022/01/05 09:05:36;;;;;;;5.80;3.70;;;;;;98613.45;;;;106939;1279;64763;-30
2022/01/05 09:08:04;;;;;;;5.40;3.30;;;;;;98611.56;;;;106953;1279;64877;-29
2022/01/05 09:10:31;;;;;;;6.90;3.50;;;;;;98612.69;;;;106822;1279;64873;-33
2022/01/05 09:12:59;;;;;;;6.00;3.50;;;;;;98611.60;;;;106952;1279;64710;-34
2022/01/05 09:15:27;;;;;;;6.50;3.50;;;;;;98617.93;;;;106755;1282;65834;-32
2022/01/05 09:17:54;;;;;;;6.90;3.70;;;;;;98612.83;;;;106906;1281;64858;-38
2022/01/05 09:20:22;;;;;;;6.60;3.50;;;;;;98613.23;;;;106905;1280;64761;-41
2022/01/05 09:22:49;;;;;;;5.80;3.60;;;;;;98613.49;;;;106943;1279;64864;-40
2022/01/05 09:25:18;;;;;;;5.60;3.10;;;;;;98613.38;;;;106914;1279;64901;-36
2022/01/05 09:27:46;;;;;;;6.80;3.30;;;;;;98613.70;;;;106737;1281;66035;-40
2022/01/05 09:30:15;;;;;;;6.90;3.80;;;;;;98613.27;;;;106917;1281;64978;-34
2022/01/05 09:32:43;;;;;;;5.50;3.30;;;;;;98614.05;;;;106956;1281;64767;-27
2022/01/05 09:35:14;;;;;;;5.40;3.10;;;;;;98615.29;;;;106924;1278;64883;-29
2022/01/05 09:38:07;;;;;;;5.90;3.30;;;;;;98608.08;;;;106928;1279;64846;-33
2022/01/05 09:43:22;;;;;;;5.50;3.10;;;;;;98605.23;;;;106813;1279;64875;-34
2022/01/05 09:46:09;;;;;;;6.50;3.20;;;;;;98605.48;;;;106988;1279;64735;-37
2022/01/05 09:49:11;;;;;;;5.90;3.40;;;;;;98606.71;;;;106645;1279;64921;-28
2022/01/05 09:51:42;;;;;;;7.30;3.60;;;;;;98609.70;;;;106773;1282;64989;-32
2022/01/05 09:54:12;;;;;;;5.90;3.70;;;;;;98613.55;;;;106908;1281;65707;-33
2022/01/05 09:56:39;;;;;;;5.90;3.10;;;;;;98613.30;;;;106892;1281;64979;-34
2022/01/05 09:59:06;;;;;;;6.30;3.20;;;;;;98608.77;;;;106902;1281;64866;-35
2022/01/05 10:01:37;;;;;;;6.70;3.30;;;;;;98607.05;;;;106730;1281;64931;-35
2022/01/05 10:04:05;;;;;;;6.40;3.50;;;;;;98611.96;;;;106902;1281;64901;-36
2022/01/05 10:06:36;;;;;;;6.00;3.60;;;;;;98617.65;;;;106912;1281;66495;-38
2022/01/05 10:09:04;;;;;;;5.80;3.30;;;;;;98620.13;;;;106897;1281;64865;-34
2022/01/05 10:11:32;;;;;;;5.80;3.60;;;;;;98614.39;;;;106929;1281;64919;-28
2022/01/05 10:13:59;;;;;;;5.10;2.90;;;;;;98607.22;;;;106807;1281;64903;-31
2022/01/05 10:16:26;;;;;;;6.60;3.10;;;;;;98611.58;;;;106917;1281;64827;-31
2022/01/05 10:18:53;;;;;;;5.30;3.60;;;;;;98621.66;;;;106849;1281;64874;-29
2022/01/05 10:21:21;;;;;;;6.90;3.40;;;;;;98619.06;;;;106931;1281;64852;-31
2022/01/05 10:23:51;;;;;;;7.70;3.60;;;;;;98612.52;;;;106933;1281;64817;-30
2022/01/05 10:26:34;;;;;;;5.30;3.40;;;;;;98611.31;;;;106934;1281;64860;-30
2022/01/05 10:29:07;;;;;;;6.60;3.60;;;;;;98614.67;;;;106926;1281;64718;-30
2022/01/05 10:31:39;;;;;;;5.40;3.10;;;;;;98619.33;;;;106919;1281;65673;-30
2022/01/05 10:34:32;;;;;;;6.20;3.50;;;;;;98614.73;;;;106740;1282;65046;-29
2022/01/05 10:37:05;;;;;;;6.00;3.60;;;;;;98604.70;;;;106792;1282;64773;-31
2022/01/05 10:39:35;;;;;;;5.90;3.40;;;;;;98602.46;;;;106384;1283;64916;-30
2022/01/05 10:42:14;;;;;;;5.40;3.60;;;;;;98605.83;;;;106796;1282;64822;-30
2022/01/05 10:44:43;;;;;;;6.20;3.40;;;;;;98611.52;;;;106608;1282;69224;-29
2022/01/05 10:47:16;;;;;;;5.00;3.00;;;;;;98611.60;;;;106774;1282;64729;-35
2022/01/05 10:49:44;;;;;;;6.20;3.40;;;;;;98606.83;;;;106594;1285;64986;-37
2022/01/05 10:52:34;;;;;;;6.30;3.70;;;;;;98606.20;;;;106754;1282;64010;-30
2022/01/05 10:55:23;;;;;;;6.40;3.50;;;;;;98596.40;;;;106793;1282;64752;-30
2022/01/05 10:58:07;;;;;;;5.80;3.40;;;;;;98600.09;;;;106642;1282;65647;-30
2022/01/05 11:00:45;;;;;;;6.70;3.90;;;;;;98590.77;;;;106640;1284;64776;-31
2022/01/05 11:03:35;;;;;;;7.00;3.40;;;;;;98582.20;;;;106608;1282;64895;-35
2022/01/05 11:06:13;;;;;;;5.50;3.30;;;;;;98583.15;;;;106698;1282;64890;-35
2022/01/05 11:08:59;;;;;;;5.20;3.20;;;;;;98585.18;;;;106756;1282;64769;-34
2022/01/05 11:11:37;;;;;;;6.10;3.90;;;;;;98581.12;;;;106765;1282;67366;-40
2022/01/05 11:14:11;;;;;;;7.00;3.60;;;;;;98567.70;;;;106751;1281;64864;-46
2022/01/05 11:16:45;;;;;;;5.70;3.40;;;;;;98556.27;;;;106426;1283;66381;-41
2022/01/05 11:19:21;;;;;;;6.30;3.40;;;;;;98553.84;;;;106505;1282;64854;-47
2022/01/05 11:22:14;;;;;;;6.70;3.90;;;;;;98555.94;;;;106842;1281;64782;-31
2022/01/05 11:24:51;;;;;;;5.50;3.80;;;;;;98555.57;;;;106791;1281;66087;-33
2022/01/05 11:27:25;;;;;;;6.60;3.70;;;;;;98551.19;;;;106797;1281;64772;-35
2022/01/05 11:29:52;;;;;;;6.20;3.40;;;;;;98557.04;;;;106820;1281;64891;-36
2022/01/05 11:32:25;;;;;;;6.10;3.60;;;;;;98558.65;;;;106859;1280;64749;-38
2022/01/05 11:34:54;;;;;;;6.50;3.40;;;;;;98563.48;;;;106967;1279;65185;-37
2022/01/05 11:37:21;;;;;;;7.30;3.50;;;;;;98568.94;;;;106839;1281;64855;-34
2022/01/05 11:39:52;;;;;;;6.70;4.00;;;;;;98570.64;;;;106958;1279;64821;-34
2022/01/05 11:42:31;;;;;;;6.10;3.50;;;;;;98573.56;;;;106951;1279;64767;-33
2022/01/05 11:44:59;;;;;;;6.30;4.00;;;;;;98566.74;;;;106813;1280;64756;-32
2022/01/05 11:47:30;;;;;;;5.90;3.80;;;;;;98561.77;;;;106844;1280;62291;-33
2022/01/05 11:50:13;;;;;;;5.30;3.40;;;;;;98554.23;;;;106963;1279;64781;-31
2022/01/05 11:53:06;;;;;;;6.40;3.80;;;;;;98547.63;;;;106917;1279;64862;-35
2022/01/05 11:56:07;;;;;;;6.40;3.50;;;;;;98550.38;;;;106970;1279;64803;-54
2022/01/05 11:58:36;;;;;;;6.40;3.70;;;;;;98551.20;;;;106742;1279;64865;-29
2022/01/05 12:01:13;;;;;;;7.90;3.90;;;;;;98548.02;;;;106963;1279;64877;-35
2022/01/05 12:04:00;;;;;;;6.50;3.90;;;;;;98553.44;;;;106943;1279;66492;-35
2022/01/05 12:06:31;;;;;;;6.60;3.50;;;;;;98547.02;;;;106925;1279;64744;-34
2022/01/05 12:09:20;;;;;;;6.70;4.10;;;;;;98540.39;;;;106940;1281;65249;-38
2022/01/05 12:11:47;;;;;;;7.60;3.80;;;;;;98540.45;;;;106951;1280;64753;-33
2022/01/05 12:14:20;;;;;;;6.70;3.60;;;;;;98554.43;;;;106990;1279;65486;-33
2022/01/05 12:16:59;;;;;;;7.10;3.50;;;;;;98547.89;;;;106976;1280;65906;-33
2022/01/05 12:19:30;;;;;;;7.40;3.80;;;;;;98548.96;;;;106945;1279;64764;-27
2022/01/05 12:22:08;;;;;;;7.90;3.90;;;;;;98546.54;;;;106964;1279;64763;-35
2022/01/05 12:24:54;;;;;;;6.40;3.90;;;;;;98535.39;;;;106796;1279;65987;-29
2022/01/05 12:27:35;;;;;;;6.40;3.80;;;;;;98541.30;;;;106958;1279;64869;-34
2022/01/05 12:30:09;;;;;;;7.40;4.00;;;;;;98531.20;;;;107081;1277;66858;-46
2022/01/05 12:32:40;;;;;;;;;;;;;;98528.87;;;;107020;1278;64896;-48
2022/01/05 12:35:19;;;;;;;6.40;3.70;;;;;;98521.25;;;;106946;1279;64771;-30
2022/01/05 12:37:57;;;;;;;7.50;3.70;;;;;;98513.98;;;;106951;1280;64837;-32
2022/01/05 12:40:38;;;;;;;6.40;3.60;;;;;;98517.03;;;;106979;1280;65044;-31
2022/01/05 12:43:10;;;;;;;8.60;3.70;;;;;;98519.84;;;;106970;1279;68050;-32
2022/01/05 12:46:03;;;;;;;7.40;4.00;;;;;;98516.71;;;;106955;1279;64855;-29
2022/01/05 12:48:36;;;;;;;6.50;3.70;;;;;;98519.89;;;;106946;1279;65051;-28
2022/01/05 12:51:20;;;;;;;6.10;3.50;;;;;;98522.30;;;;106904;1280;64901;-29
2022/01/05 12:54:12;;;;;;;6.30;3.40;;;;;;98519.77;;;;106999;1280;64767;-40
2022/01/05 12:57:04;;;;;;;8.20;4.10;;;;;;98526.16;;;;106976;1280;67892;-39
2022/01/05 12:59:40;;;;;;;6.80;3.90;;;;;;98523.64;;;;106928;1279;64888;-31
2022/01/05 13:02:11;;;;;;;5.80;3.70;;;;;;98525.45;;;;106866;1281;64767;-30
2022/01/05 13:04:46;;;;;;;7.70;3.70;;;;;;98530.10;;;;106885;1280;64917;-38
2022/01/05 13:07:14;;;;;;;6.50;3.60;;;;;;98534.13;;;;107016;1280;64849;-33
2022/01/05 13:09:51;;;;;;;7.00;3.60;;;;;;98537.55;;;;106999;1280;64849;-42
2022/01/05 13:12:23;;;;;;;6.40;3.60;;;;;;98538.17;;;;106972;1280;64785;-37
2022/01/05 13:14:57;;;;;;;7.70;4.00;;;;;;98533.83;;;;106988;1280;64870;-29
2022/01/05 13:17:32;;;;;;;6.50;3.90;;;;;;98538.92;;;;106960;1280;64719;-31